Time;durP1;ratioP1;P1;durP2;ratioP2;P2;SDS_P1;SDS_P2;PMS_P1;PMS_P2;Temp;Humidity;BMP_temperature;BMP_pressure;BME280_temperature;BME280_humidity;BME280_pressure;Samples;Min_cycle;Max_cycle;Signal;HPM_P1;HPM_P2
2022/04/05 00:01:21;;;;;;;12.10;1.88;;;8.30;99.90;;;;;;5081180;28;20047;-74
2022/04/05 00:03:47;;;;;;;13.48;1.80;;;8.30;99.90;;;;;;5097915;28;20054;-74
2022/04/05 00:06:13;;;;;;;18.65;2.47;;;8.20;99.90;;;;;;5097835;28;20471;-74
2022/04/05 00:08:38;;;;;;;22.52;2.13;;;8.30;99.90;;;;;;5097873;28;20035;-74
2022/04/05 00:11:04;;;;;;;22.45;3.08;;;8.30;99.90;;;;;;5097639;28;20530;-74
2022/04/05 00:13:30;;;;;;;19.25;2.17;;;8.20;99.90;;;;;;5097725;28;20092;-74
2022/04/05 00:15:55;;;;;;;18.20;1.77;;;8.20;99.90;;;;;;5097717;28;20047;-74
2022/04/05 00:18:21;;;;;;;13.45;1.80;;;8.20;99.90;;;;;;5097692;28;20478;-74
2022/04/05 00:20:47;;;;;;;16.05;1.73;;;8.30;99.90;;;;;;5097022;28;20054;-75
2022/04/05 00:23:12;;;;;;;15.52;1.27;;;8.20;99.90;;;;;;5080489;28;20058;-74
2022/04/05 00:25:38;;;;;;;23.45;2.45;;;8.20;99.90;;;;;;5080402;28;20052;-74
2022/04/05 00:28:04;;;;;;;20.75;1.90;;;8.20;99.90;;;;;;5097126;28;20048;-74
2022/04/05 00:30:30;;;;;;;13.07;1.60;;;8.20;99.90;;;;;;5115180;28;20055;-74
2022/04/05 00:32:56;;;;;;;10.35;1.90;;;8.20;99.90;;;;;;5096806;28;20432;-73
2022/04/05 00:35:21;;;;;;;14.27;1.52;;;8.30;99.90;;;;;;5080431;28;20054;-74
2022/04/05 00:37:48;;;;;;;15.77;1.60;;;8.30;99.90;;;;;;5097191;28;20051;-74
2022/04/05 00:40:14;;;;;;;14.02;1.90;;;8.30;99.90;;;;;;5080362;28;20043;-74
2022/04/05 00:42:40;;;;;;;17.88;1.80;;;8.30;99.90;;;;;;5097277;28;20127;-74
2022/04/05 00:45:09;;;;;;;11.60;1.45;;;8.20;99.90;;;;;;5097263;28;20055;-74
2022/04/05 00:47:36;;;;;;;20.10;1.80;;;8.10;99.90;;;;;;5096489;28;20059;-74
2022/04/05 00:50:04;;;;;;;18.55;1.95;;;8.20;99.90;;;;;;5097414;28;20056;-74
2022/04/05 00:52:30;;;;;;;17.35;2.25;;;8.20;99.90;;;;;;5079993;28;20402;-74
2022/04/05 00:54:58;;;;;;;11.88;1.48;;;8.10;99.90;;;;;;5096751;28;20046;-74
2022/04/05 00:57:24;;;;;;;14.68;1.50;;;8.20;99.90;;;;;;5096815;28;20189;-74
2022/04/05 00:59:55;;;;;;;13.00;1.40;;;8.20;99.90;;;;;;5114889;28;20126;-74
2022/04/05 01:02:22;;;;;;;13.13;1.35;;;8.20;99.90;;;;;;5096956;28;20479;-74
2022/04/05 01:04:49;;;;;;;17.48;1.65;;;8.20;99.90;;;;;;5096586;28;20130;-74
2022/04/05 01:07:19;;;;;;;14.93;1.98;;;8.20;99.90;;;;;;5096588;28;20471;-74
2022/04/05 01:09:45;;;;;;;17.20;1.58;;;8.30;99.90;;;;;;5114827;28;20043;-73
2022/04/05 01:12:13;;;;;;;15.93;1.73;;;8.40;99.90;;;;;;5096665;28;20047;-74
2022/04/05 01:14:40;;;;;;;13.95;2.10;;;8.30;99.90;;;;;;5096631;28;20085;-74
2022/04/05 01:17:06;;;;;;;19.30;1.58;;;8.20;99.90;;;;;;5096600;28;20055;-74
2022/04/05 01:19:33;;;;;;;22.73;2.15;;;8.10;99.90;;;;;;5114485;28;20058;-74
2022/04/05 01:22:00;;;;;;;16.17;2.28;;;8.10;99.90;;;;;;5096089;28;20043;-74
2022/04/05 01:24:25;;;;;;;17.50;2.33;;;8.00;99.90;;;;;;5096519;28;20043;-74
2022/04/05 01:26:53;;;;;;;11.85;1.67;;;8.00;99.90;;;;;;5096031;28;20062;-74
2022/04/05 01:29:20;;;;;;;15.73;3.05;;;8.00;99.90;;;;;;5114752;28;20453;-74
2022/04/05 01:31:48;;;;;;;15.57;1.95;;;8.10;99.90;;;;;;5096681;28;20050;-73
2022/04/05 01:34:17;;;;;;;15.73;2.38;;;8.10;99.90;;;;;;5114661;28;20096;-74
2022/04/05 01:36:52;;;;;;;16.08;1.70;;;8.20;99.90;;;;;;5096715;28;20052;-74
2022/04/05 01:39:23;;;;;;;18.38;1.95;;;8.10;99.90;;;;;;5096299;28;20062;-74
2022/04/05 01:41:57;;;;;;;13.95;1.92;;;8.10;99.90;;;;;;5114294;28;20051;-74
2022/04/05 01:44:24;;;;;;;16.92;2.22;;;8.20;99.90;;;;;;5079403;28;20099;-74
2022/04/05 01:46:49;;;;;;;17.75;2.00;;;8.20;99.90;;;;;;5095850;28;20044;-74
2022/04/05 01:49:15;;;;;;;18.95;2.20;;;8.10;99.90;;;;;;5095970;28;20055;-74
2022/04/05 01:51:42;;;;;;;20.63;2.35;;;8.10;99.90;;;;;;5095541;28;20153;-74
2022/04/05 01:54:09;;;;;;;21.27;2.13;;;8.10;99.90;;;;;;5096079;28;20056;-74
2022/04/05 01:56:42;;;;;;;15.18;2.03;;;8.00;99.90;;;;;;5096231;28;20052;-74
2022/04/05 01:59:07;;;;;;;19.45;2.42;;;8.20;99.90;;;;;;5096207;28;20054;-74
2022/04/05 02:01:33;;;;;;;17.77;2.60;;;8.20;99.90;;;;;;5096098;28;20044;-73
2022/04/05 02:03:59;;;;;;;16.30;2.08;;;8.20;99.90;;;;;;5114277;28;20047;-74
2022/04/05 02:06:25;;;;;;;13.05;2.35;;;8.30;99.90;;;;;;5096091;28;20075;-74
2022/04/05 02:08:51;;;;;;;23.25;2.58;;;8.40;99.90;;;;;;5095444;28;20065;-74
2022/04/05 02:11:17;;;;;;;18.48;2.58;;;8.50;99.90;;;;;;5096005;28;20147;-74
2022/04/05 02:13:42;;;;;;;24.42;2.08;;;8.60;99.90;;;;;;5096045;28;20126;-74
2022/04/05 02:16:08;;;;;;;16.55;2.25;;;8.70;99.90;;;;;;5095675;28;20043;-74
2022/04/05 02:18:37;;;;;;;18.58;2.40;;;8.70;99.90;;;;;;5095652;28;20108;-74
2022/04/05 02:21:03;;;;;;;21.25;2.50;;;8.60;99.90;;;;;;5095147;28;20052;-74
2022/04/05 02:23:29;;;;;;;17.73;2.50;;;8.60;99.90;;;;;;5095674;28;20391;-74
2022/04/05 02:25:55;;;;;;;25.10;2.67;;;8.60;99.90;;;;;;5095803;28;20048;-74
2022/04/05 02:28:21;;;;;;;19.42;2.53;;;8.70;99.90;;;;;;5078590;28;20047;-74
2022/04/05 02:30:46;;;;;;;27.25;2.63;;;8.70;99.90;;;;;;5113846;28;20175;-73
2022/04/05 02:33:12;;;;;;;19.58;2.30;;;8.70;99.90;;;;;;5095935;28;20067;-73
2022/04/05 02:35:38;;;;;;;26.13;2.65;;;8.70;99.90;;;;;;5095497;28;20047;-73
2022/04/05 02:38:04;;;;;;;21.95;3.13;;;8.80;99.90;;;;;;5095779;28;20047;-74
2022/04/05 02:40:30;;;;;;;24.60;2.50;;;8.80;99.90;;;;;;5078995;28;20044;-74
2022/04/05 02:42:56;;;;;;;22.02;2.53;;;8.80;99.90;;;;;;5113965;28;20394;-74
2022/04/05 02:45:22;;;;;;;14.80;2.40;;;8.70;99.90;;;;;;5113678;28;20043;-74
2022/04/05 02:47:49;;;;;;;24.80;2.85;;;8.70;99.90;;;;;;5095313;28;20060;-74
2022/04/05 02:50:18;;;;;;;24.60;2.58;;;8.60;99.90;;;;;;5079139;28;20461;-74
2022/04/05 02:52:48;;;;;;;29.38;3.08;;;8.50;99.90;;;;;;5095155;28;20055;-73
2022/04/05 02:55:14;;;;;;;26.70;2.60;;;8.50;99.90;;;;;;5115912;28;20043;-74
2022/04/05 02:57:42;;;;;;;21.48;2.70;;;8.50;99.90;;;;;;5099106;28;20069;-73
2022/04/05 03:00:11;;;;;;;22.83;2.53;;;8.40;99.90;;;;;;5098841;28;20048;-73
2022/04/05 03:02:37;;;;;;;30.50;2.88;;;8.50;99.90;;;;;;5098869;28;20086;-73
2022/04/05 03:05:05;;;;;;;21.83;2.75;;;8.40;99.90;;;;;;5099173;28;20047;-73
2022/04/05 03:07:31;;;;;;;27.90;2.80;;;8.50;99.90;;;;;;5082065;28;20044;-73
2022/04/05 03:09:56;;;;;;;22.13;2.75;;;8.40;99.90;;;;;;5098749;28;20043;-73
2022/04/05 03:12:22;;;;;;;25.25;2.42;;;8.50;99.90;;;;;;5081878;28;20082;-73
2022/04/05 03:14:48;;;;;;;26.98;3.03;;;8.50;99.90;;;;;;5116876;28;20097;-73
2022/04/05 03:17:13;;;;;;;25.15;2.70;;;8.50;99.90;;;;;;5098832;28;20098;-73
2022/04/05 03:19:39;;;;;;;24.80;3.22;;;8.50;99.90;;;;;;5081982;28;20048;-73
2022/04/05 03:22:11;;;;;;;21.38;2.70;;;8.40;99.90;;;;;;5116312;28;20043;-73
2022/04/05 03:24:37;;;;;;;24.50;2.90;;;8.40;99.90;;;;;;5098713;28;20058;-73
2022/04/05 03:27:03;;;;;;;22.10;2.63;;;8.40;99.90;;;;;;5081524;28;20079;-73
2022/04/05 03:29:29;;;;;;;33.92;3.03;;;8.50;99.90;;;;;;5099256;28;20177;-73
2022/04/05 03:31:55;;;;;;;16.88;1.70;;;8.40;99.90;;;;;;5098249;28;20115;-73
2022/04/05 03:34:21;;;;;;;25.45;2.53;;;8.20;99.90;;;;;;5081621;28;20040;-73
2022/04/05 03:36:47;;;;;;;16.80;2.45;;;8.10;99.90;;;;;;5098436;28;20054;-73
2022/04/05 03:39:14;;;;;;;26.83;2.20;;;8.10;99.90;;;;;;5098547;28;20102;-73
2022/04/05 03:41:44;;;;;;;25.70;2.95;;;8.10;99.90;;;;;;5081477;28;20059;-73
2022/04/05 03:44:10;;;;;;;20.77;1.85;;;8.00;99.90;;;;;;5116405;28;20112;-73
2022/04/05 03:46:36;;;;;;;17.17;1.95;;;8.10;99.90;;;;;;5098284;28;20482;-73
2022/04/05 03:49:02;;;;;;;26.60;3.80;;;8.10;99.90;;;;;;5097540;28;20101;-73
2022/04/05 03:51:28;;;;;;;28.13;3.15;;;8.10;99.90;;;;;;5081056;28;20055;-74
2022/04/05 03:53:54;;;;;;;29.90;2.78;;;8.20;99.90;;;;;;5116410;28;20044;-74
2022/04/05 03:56:21;;;;;;;27.23;3.05;;;8.10;99.90;;;;;;5097888;28;20436;-74
2022/04/05 03:58:47;;;;;;;27.02;3.22;;;8.20;99.90;;;;;;5098046;28;20089;-74
2022/04/05 04:01:12;;;;;;;24.80;2.67;;;8.20;99.90;;;;;;5081410;28;20052;-74
2022/04/05 04:03:38;;;;;;;30.15;2.55;;;8.20;99.90;;;;;;5115958;28;20052;-73
2022/04/05 04:06:04;;;;;;;29.50;2.90;;;8.30;99.90;;;;;;5097958;28;20047;-73
2022/04/05 04:08:29;;;;;;;26.65;2.83;;;8.30;99.90;;;;;;5107091;27;20096;-74
2022/04/05 04:10:56;;;;;;;22.30;2.67;;;8.20;99.90;;;;;;5116441;27;20070;-74
2022/04/05 04:13:21;;;;;;;24.00;2.70;;;8.20;99.90;;;;;;5101187;27;20122;-74
2022/04/05 04:15:47;;;;;;;22.00;2.42;;;8.10;99.90;;;;;;5118310;27;20558;-73
2022/04/05 04:18:13;;;;;;;23.25;2.72;;;8.00;99.90;;;;;;5118265;27;20053;-74
2022/04/05 04:20:42;;;;;;;28.42;2.53;;;8.10;99.90;;;;;;5118160;27;20073;-74
2022/04/05 04:23:08;;;;;;;25.15;2.33;;;8.20;99.90;;;;;;5135495;27;20558;-74
2022/04/05 04:25:34;;;;;;;24.02;2.38;;;8.20;99.90;;;;;;5136399;27;20047;-74
2022/04/05 04:28:00;;;;;;;21.23;2.55;;;8.30;99.90;;;;;;5117753;27;20096;-74
2022/04/05 04:30:26;;;;;;;38.10;3.03;;;8.30;99.90;;;;;;5117914;27;20046;-74
2022/04/05 04:32:53;;;;;;;20.48;1.90;;;8.20;99.90;;;;;;5117988;27;20084;-73
2022/04/05 04:35:20;;;;;;;29.75;2.85;;;8.20;99.90;;;;;;5117765;27;20482;-74
2022/04/05 04:37:46;;;;;;;36.88;2.97;;;8.30;99.90;;;;;;5117432;27;20059;-74
2022/04/05 04:40:12;;;;;;;25.73;2.88;;;8.30;99.90;;;;;;5117633;27;20051;-74
2022/04/05 04:42:38;;;;;;;29.42;3.08;;;8.20;99.90;;;;;;5135741;27;20138;-74
2022/04/05 04:45:04;;;;;;;23.02;2.00;;;8.20;99.90;;;;;;5117818;27;20070;-74
2022/04/05 04:47:29;;;;;;;25.55;2.50;;;8.20;99.90;;;;;;5117287;27;20067;-74
2022/04/05 04:49:55;;;;;;;22.67;2.42;;;8.40;99.90;;;;;;5117343;27;20051;-74
2022/04/05 04:52:21;;;;;;;27.08;2.53;;;8.40;99.90;;;;;;5116794;27;20058;-73
2022/04/05 04:54:47;;;;;;;29.83;2.83;;;8.40;99.90;;;;;;5117394;27;20043;-73
2022/04/05 04:57:13;;;;;;;24.75;3.90;;;8.40;99.90;;;;;;5117595;27;20054;-73
2022/04/05 04:59:38;;;;;;;38.85;9.40;;;8.40;99.90;;;;;;5135349;27;20103;-73
2022/04/05 05:02:04;;;;;;;40.75;8.70;;;8.50;99.90;;;;;;5117318;27;20134;-74
2022/04/05 05:04:30;;;;;;;31.50;6.40;;;8.50;99.90;;;;;;5116922;27;20079;-73
2022/04/05 05:06:56;;;;;;;27.10;5.60;;;8.60;99.90;;;;;;5116855;27;20104;-73
2022/04/05 05:09:22;;;;;;;30.70;5.10;;;8.50;99.90;;;;;;5117825;27;20049;-73
2022/04/05 05:11:47;;;;;;;17.98;2.83;;;8.40;99.90;;;;;;5117079;27;20054;-73
2022/04/05 05:14:13;;;;;;;20.55;2.60;;;8.50;99.90;;;;;;5117121;27;20138;-74
2022/04/05 05:16:38;;;;;;;21.63;2.60;;;8.60;99.90;;;;;;5100377;27;20379;-74
2022/04/05 05:19:07;;;;;;;22.95;2.92;;;8.70;99.90;;;;;;5100225;27;20168;-74
2022/04/05 05:21:33;;;;;;;33.00;7.20;;;8.70;99.90;;;;;;5116106;27;20055;-73
2022/04/05 05:23:58;;;;;;;28.50;5.32;;;8.70;99.90;;;;;;5116690;27;20100;-74
2022/04/05 05:26:24;;;;;;;22.55;4.38;;;8.70;99.90;;;;;;5116847;27;20130;-74
2022/04/05 05:28:50;;;;;;;29.95;6.65;;;8.70;99.90;;;;;;5116489;27;20043;-74
2022/04/05 05:31:16;;;;;;;36.97;3.60;;;8.70;99.90;;;;;;5116800;27;20126;-74
2022/04/05 05:33:42;;;;;;;21.45;2.65;;;8.60;99.90;;;;;;5100003;27;20050;-73
2022/04/05 05:36:08;;;;;;;22.67;3.55;;;8.60;99.90;;;;;;5099876;27;20390;-74
2022/04/05 05:38:34;;;;;;;19.98;3.60;;;8.60;99.90;;;;;;5116362;27;20051;-74
2022/04/05 05:41:00;;;;;;;33.03;8.80;;;8.70;99.90;;;;;;5116586;27;20039;-74
2022/04/05 05:43:25;;;;;;;27.75;5.25;;;8.60;99.90;;;;;;5116590;28;20039;-74
2022/04/05 05:45:51;;;;;;;23.70;3.08;;;8.50;99.90;;;;;;5116380;28;20047;-73
2022/04/05 05:48:17;;;;;;;23.35;3.88;;;8.50;99.90;;;;;;5112424;28;20495;-73
2022/04/05 05:50:43;;;;;;;21.65;3.40;;;8.60;99.90;;;;;;5113243;28;20052;-73
2022/04/05 05:53:09;;;;;;;21.92;6.65;;;8.60;99.90;;;;;;5095359;28;20052;-74
2022/04/05 05:55:35;;;;;;;29.42;5.18;;;8.60;99.90;;;;;;5114151;28;20044;-73
2022/04/05 05:58:03;;;;;;;26.92;4.88;;;8.50;99.90;;;;;;5113191;28;20044;-73
2022/04/05 06:00:29;;;;;;;26.15;5.18;;;8.50;99.90;;;;;;5113126;28;20437;-74
2022/04/05 06:03:01;;;;;;;18.25;2.90;;;8.40;99.90;;;;;;5096319;28;20044;-73
2022/04/05 06:05:28;;;;;;;30.48;5.05;;;8.50;99.90;;;;;;5114001;28;20055;-73
2022/04/05 06:07:54;;;;;;;29.70;4.05;;;8.50;99.90;;;;;;5113925;28;20097;-73
2022/04/05 06:10:21;;;;;;;23.92;3.60;;;8.40;99.90;;;;;;5113598;28;20055;-73
2022/04/05 06:12:50;;;;;;;20.25;3.00;;;8.50;99.90;;;;;;5113010;28;20043;-73
2022/04/05 06:15:18;;;;;;;25.15;4.90;;;8.50;99.90;;;;;;5112704;28;20512;-74
2022/04/05 06:17:45;;;;;;;21.90;4.00;;;8.40;99.90;;;;;;5113997;28;20039;-74
2022/04/05 06:20:13;;;;;;;29.30;3.97;;;8.60;99.90;;;;;;5112792;28;20505;-73
2022/04/05 06:22:46;;;;;;;24.15;3.92;;;8.70;99.90;;;;;;5112322;28;20052;-73
2022/04/05 06:25:14;;;;;;;23.35;3.03;;;8.80;99.90;;;;;;5112850;28;20052;-73
2022/04/05 06:27:40;;;;;;;26.27;4.00;;;8.80;99.90;;;;;;5113718;28;20032;-74
2022/04/05 06:30:08;;;;;;;20.10;2.80;;;8.90;99.90;;;;;;5115532;28;20043;-74
2022/04/05 06:32:34;;;;;;;15.70;3.00;;;8.90;99.90;;;;;;5116749;28;20161;-73
2022/04/05 06:35:00;;;;;;;17.13;2.80;;;8.90;99.90;;;;;;5118447;28;20555;-73
2022/04/05 06:37:26;;;;;;;16.88;2.55;;;9.00;99.90;;;;;;5117081;28;20048;-74
2022/04/05 06:39:52;;;;;;;24.80;3.08;;;9.00;99.90;;;;;;5116581;28;20383;-74
2022/04/05 06:42:18;;;;;;;21.20;3.40;;;9.10;99.90;;;;;;5116870;28;20047;-74
2022/04/05 06:44:44;;;;;;;25.27;4.57;;;9.10;99.90;;;;;;5116582;28;20096;-74
2022/04/05 06:47:11;;;;;;;23.83;3.85;;;9.20;99.90;;;;;;5099332;28;20425;-74
2022/04/05 06:49:38;;;;;;;26.05;2.70;;;9.10;99.90;;;;;;5098533;28;20062;-74
2022/04/05 06:52:04;;;;;;;26.83;3.67;;;9.10;99.90;;;;;;5115969;28;20489;-74
2022/04/05 06:54:30;;;;;;;19.38;3.70;;;9.00;99.90;;;;;;5116555;28;20471;-74
2022/04/05 06:56:56;;;;;;;17.90;3.22;;;8.90;99.90;;;;;;5116316;28;20040;-74
2022/04/05 06:59:21;;;;;;;16.67;3.10;;;8.90;99.90;;;;;;5116459;28;20075;-74
2022/04/05 07:01:47;;;;;;;19.40;3.63;;;8.90;99.90;;;;;;5116226;28;20059;-74
2022/04/05 07:04:13;;;;;;;24.33;3.08;;;9.00;99.90;;;;;;5099160;28;20040;-74
2022/04/05 07:06:38;;;;;;;20.48;3.22;;;9.00;99.90;;;;;;5116186;28;20047;-74
2022/04/05 07:09:07;;;;;;;21.45;3.30;;;9.00;99.90;;;;;;5115614;28;20467;-73
2022/04/05 07:11:33;;;;;;;24.80;2.53;;;9.00;99.90;;;;;;5115730;28;20118;-74
2022/04/05 07:13:59;;;;;;;20.25;3.30;;;9.20;99.90;;;;;;5116049;28;20177;-74
2022/04/05 07:16:25;;;;;;;25.10;4.43;;;9.30;99.90;;;;;;5115575;28;20035;-74
2022/04/05 07:18:51;;;;;;;19.63;3.60;;;9.30;99.90;;;;;;5098998;28;20047;-74
2022/04/05 07:21:20;;;;;;;20.15;3.38;;;9.40;99.90;;;;;;5115557;28;20136;-74
2022/04/05 07:23:49;;;;;;;15.73;3.63;;;9.30;99.90;;;;;;5098700;28;20050;-74
2022/04/05 07:26:14;;;;;;;15.23;3.58;;;9.10;99.90;;;;;;5115676;28;20050;-74
2022/04/05 07:28:40;;;;;;;20.25;4.20;;;8.90;99.90;;;;;;5115310;28;20043;-74
2022/04/05 07:31:06;;;;;;;12.90;3.25;;;8.90;99.90;;;;;;5115658;28;20095;-74
2022/04/05 07:33:31;;;;;;;14.65;2.65;;;8.80;99.90;;;;;;5115532;28;20043;-74
2022/04/05 07:35:57;;;;;;;12.63;2.75;;;8.90;99.90;;;;;;5115378;28;20044;-74
2022/04/05 07:38:24;;;;;;;11.07;2.90;;;8.90;99.90;;;;;;5115451;28;20092;-74
2022/04/05 07:40:51;;;;;;;17.58;2.45;;;8.90;99.90;;;;;;5114995;28;20122;-72
2022/04/05 07:43:25;;;;;;;12.02;2.85;;;9.00;99.90;;;;;;5114652;28;20083;-78
2022/04/05 07:45:51;;;;;;;18.38;2.83;;;9.10;99.90;;;;;;5114341;28;20052;-78
2022/04/05 07:48:27;;;;;;;16.63;2.53;;;9.00;99.90;;;;;;5114732;28;20039;-77
2022/04/05 07:50:54;;;;;;;14.15;2.40;;;9.00;99.90;;;;;;5114851;28;20055;-77
2022/04/05 07:53:20;;;;;;;7.82;2.03;;;9.00;99.90;;;;;;5114804;28;20058;-77
2022/04/05 07:55:46;;;;;;;17.27;2.75;;;9.10;99.90;;;;;;5098061;28;20047;-78
2022/04/05 07:58:12;;;;;;;17.13;3.42;;;9.20;99.90;;;;;;5116155;28;20039;-77
2022/04/05 08:00:38;;;;;;;15.55;3.15;;;9.20;99.90;;;;;;5115078;28;20058;-77
2022/04/05 08:03:04;;;;;;;18.30;3.28;;;9.30;99.90;;;;;;5097724;28;20547;-77
2022/04/05 08:05:30;;;;;;;17.35;2.42;;;9.20;99.90;;;;;;5114972;28;20130;-77
2022/04/05 08:07:56;;;;;;;15.32;2.55;;;9.20;99.90;;;;;;5114811;28;20173;-78
2022/04/05 08:10:22;;;;;;;27.95;2.80;;;9.10;99.90;;;;;;5098001;28;20040;-77
2022/04/05 08:12:49;;;;;;;21.58;3.08;;;9.20;99.90;;;;;;5114834;28;20494;-77
2022/04/05 08:15:19;;;;;;;15.13;2.40;;;9.10;99.90;;;;;;5097871;28;20126;-77
2022/04/05 08:17:45;;;;;;;21.08;2.58;;;9.20;99.90;;;;;;5114727;28;20051;-77
2022/04/05 08:20:12;;;;;;;12.93;2.17;;;9.30;99.90;;;;;;5114862;28;20048;-77
2022/04/05 08:22:38;;;;;;;15.10;3.00;;;9.50;99.90;;;;;;5114188;28;20552;-76
2022/04/05 08:25:05;;;;;;;10.20;2.15;;;9.50;99.90;;;;;;5097584;28;20533;-76
2022/04/05 08:27:31;;;;;;;20.05;2.45;;;9.50;99.90;;;;;;5114636;28;20126;-76
2022/04/05 08:29:56;;;;;;;13.73;2.63;;;9.50;99.90;;;;;;5114454;28;20151;-76
2022/04/05 08:32:22;;;;;;;15.98;2.40;;;9.40;99.90;;;;;;5114594;28;20051;-74
2022/04/05 08:34:48;;;;;;;16.15;2.60;;;9.30;99.90;;;;;;5080735;28;20051;-74
2022/04/05 08:37:14;;;;;;;14.13;2.70;;;9.40;99.90;;;;;;5114340;28;20050;-73
2022/04/05 08:39:40;;;;;;;16.60;2.97;;;9.40;99.90;;;;;;5119886;28;20047;-74
2022/04/05 08:42:07;;;;;;;19.92;3.35;;;9.50;99.90;;;;;;5120126;28;20496;-73
2022/04/05 08:44:34;;;;;;;11.40;3.00;;;9.50;99.90;;;;;;5114106;28;20040;-74
2022/04/05 08:47:01;;;;;;;12.25;2.95;;;9.60;99.90;;;;;;5114446;28;20078;-74
2022/04/05 08:49:31;;;;;;;15.05;3.08;;;9.70;99.90;;;;;;5113718;28;20394;-74
2022/04/05 08:51:57;;;;;;;14.35;2.95;;;9.80;99.90;;;;;;5112892;28;20051;-78
2022/04/05 08:54:23;;;;;;;14.48;2.90;;;9.80;99.90;;;;;;5113920;28;20371;-75
2022/04/05 08:56:50;;;;;;;15.88;3.03;;;9.80;99.90;;;;;;5114086;28;20123;-74
2022/04/05 08:59:16;;;;;;;10.52;2.67;;;9.90;99.90;;;;;;5114313;28;20516;-74
2022/04/05 09:01:42;;;;;;;9.93;2.17;;;9.80;99.90;;;;;;5096704;28;20048;-74
2022/04/05 09:04:07;;;;;;;7.35;2.15;;;9.70;99.90;;;;;;5113561;28;20043;-74
2022/04/05 09:06:36;;;;;;;8.73;2.72;;;9.60;99.90;;;;;;5113474;28;20039;-75
2022/04/05 09:09:09;;;;;;;9.20;2.28;;;9.60;99.90;;;;;;5114579;28;20047;-76
2022/04/05 09:11:35;;;;;;;12.38;2.13;;;9.70;99.90;;;;;;5113559;28;20043;-76
2022/04/05 09:14:03;;;;;;;9.18;2.35;;;9.70;99.90;;;;;;5113695;28;20051;-76
2022/04/05 09:16:31;;;;;;;9.43;2.10;;;9.70;99.90;;;;;;5113578;28;20043;-76
2022/04/05 09:19:09;;;;;;;13.50;2.17;;;9.80;99.90;;;;;;5113599;28;20452;-77
2022/04/05 09:22:05;;;;;;;9.45;1.90;;;9.90;99.90;;;;;;5096143;28;20483;-77
2022/04/05 09:24:35;;;;;;;10.40;1.60;;;9.90;99.90;;;;;;5113612;28;20078;-76
2022/04/05 09:27:07;;;;;;;7.05;1.50;;;9.60;99.90;;;;;;5113234;28;20089;-76
2022/04/05 09:29:38;;;;;;;8.70;2.00;;;9.80;99.90;;;;;;5112942;28;20479;-75
2022/04/05 09:32:04;;;;;;;9.35;2.25;;;9.80;99.90;;;;;;5096412;28;20055;-73
2022/04/05 09:34:30;;;;;;;10.13;2.25;;;9.70;99.90;;;;;;5113239;28;20048;-74
2022/04/05 09:36:56;;;;;;;11.50;2.78;;;9.90;99.90;;;;;;5096362;28;20424;-74
2022/04/05 09:39:25;;;;;;;8.25;2.17;;;10.10;99.90;;;;;;5113314;28;20493;-74
2022/04/05 09:42:05;;;;;;;15.75;1.60;;;10.10;99.90;;;;;;5113245;28;20478;-77
2022/04/05 09:44:32;;;;;;;11.27;2.05;;;9.80;99.90;;;;;;5113303;28;20096;-77
2022/04/05 09:47:05;;;;;;;9.80;2.08;;;9.90;99.90;;;;;;5112747;28;20563;-75
2022/04/05 09:49:37;;;;;;;8.15;2.10;;;9.90;99.90;;;;;;5112960;28;20130;-74
2022/04/05 09:52:20;;;;;;;9.20;2.05;;;9.90;99.90;;;;;;5112743;28;20062;-74
2022/04/05 09:54:46;;;;;;;8.20;1.70;;;9.80;99.90;;;;;;5116341;28;20043;-78
2022/04/05 09:57:12;;;;;;;11.65;2.65;;;9.70;99.90;;;;;;5096315;28;20546;-80
2022/04/05 09:59:40;;;;;;;7.00;2.30;;;9.40;99.90;;;;;;5113171;28;20054;-73
2022/04/05 10:02:16;;;;;;;5.88;2.05;;;9.40;99.90;;;;;;5107941;28;20097;-75
2022/04/05 10:05:00;;;;;;;11.10;3.25;;;9.70;99.90;;;;;;5081279;28;20043;-73
2022/04/05 10:07:30;;;;;;;9.30;2.42;;;9.70;99.90;;;;;;5086251;28;20072;-74
2022/04/05 10:09:58;;;;;;;9.93;2.47;;;9.70;99.90;;;;;;5081650;28;20555;-76
2022/04/05 10:12:25;;;;;;;9.65;2.05;;;9.60;99.90;;;;;;5081246;28;20048;-78
2022/04/05 10:14:50;;;;;;;9.85;2.60;;;9.60;99.90;;;;;;5075359;28;20044;-73
2022/04/05 10:17:19;;;;;;;7.88;2.78;;;9.70;99.90;;;;;;5076281;28;20052;-75
2022/04/05 10:19:49;;;;;;;11.93;2.80;;;9.80;99.90;;;;;;5076400;28;20040;-75
2022/04/05 10:22:16;;;;;;;13.38;3.17;;;9.70;99.90;;;;;;5076879;28;20084;-73
2022/04/05 10:24:44;;;;;;;7.80;2.50;;;9.80;99.90;;;;;;5076679;28;20451;-73
2022/04/05 10:27:11;;;;;;;8.82;2.47;;;9.90;99.90;;;;;;5076640;28;20041;-73
2022/04/05 10:29:37;;;;;;;5.03;2.42;;;9.50;99.90;;;;;;5076209;28;20391;-76
2022/04/05 10:32:24;;;;;;;10.63;2.65;;;9.60;99.90;;;;;;5076773;28;20140;-86
2022/04/05 10:35:08;;;;;;;6.35;3.20;;;9.50;99.90;;;;;;5060060;28;20484;-77
2022/04/05 10:37:39;;;;;;;7.25;3.70;;;9.70;99.90;;;;;;5076420;28;20107;-77
2022/04/05 10:40:10;;;;;;;8.85;3.80;;;9.70;99.90;;;;;;5076155;28;20048;-76
2022/04/05 10:42:41;;;;;;;10.07;5.07;;;9.80;99.90;;;;;;5076792;28;20541;-75
2022/04/05 10:45:21;;;;;;;7.22;4.13;;;9.70;99.90;;;;;;5078673;28;20044;-79
2022/04/05 10:48:17;;;;;;;7.25;3.70;;;9.90;99.90;;;;;;5075636;28;20048;-77
2022/04/05 10:50:45;;;;;;;13.88;8.05;;;10.00;99.90;;;;;;5090542;28;20126;-77
2022/04/05 10:53:29;;;;;;;4.80;3.08;;;10.20;99.90;;;;;;5095577;28;20048;-77
2022/04/05 10:56:03;;;;;;;6.43;2.60;;;10.30;99.90;;;;;;5097314;28;20479;-75
2022/04/05 10:58:36;;;;;;;5.50;2.08;;;10.70;99.90;;;;;;5095911;28;20052;-75
2022/04/05 11:01:18;;;;;;;6.38;2.25;;;10.50;99.90;;;;;;5095864;28;20059;-76
2022/04/05 11:04:23;;;;;;;4.05;1.60;;;10.60;99.90;;;;;;5096005;28;20044;-75
2022/04/05 11:07:01;;;;;;;4.07;1.67;;;10.80;99.90;;;;;;5084634;28;20567;-74
2022/04/05 11:09:30;;;;;;;4.45;2.20;;;10.80;99.90;;;;;;5095857;28;20044;-74
2022/04/05 11:11:56;;;;;;;3.95;3.05;;;10.70;99.90;;;;;;5095697;28;20051;-74
2022/04/05 11:14:41;;;;;;;2.92;2.42;;;10.70;99.90;;;;;;5095521;28;20043;-74
2022/04/05 11:17:08;;;;;;;3.10;1.90;;;10.60;99.90;;;;;;5094980;28;20089;-74
2022/04/05 11:19:39;;;;;;;5.28;2.03;;;10.60;99.90;;;;;;5095454;28;20048;-74
2022/04/05 11:22:24;;;;;;;3.88;2.20;;;10.60;99.90;;;;;;5095118;28;20047;-74
2022/04/05 11:25:00;;;;;;;4.05;1.80;;;10.70;99.90;;;;;;5095567;28;20055;-74
2022/04/05 11:27:31;;;;;;;4.68;2.53;;;10.70;99.90;;;;;;5078610;28;20372;-74
2022/04/05 11:30:28;;;;;;;3.83;2.63;;;10.80;99.90;;;;;;5095028;28;20084;-74
2022/04/05 11:33:09;;;;;;;2.60;1.65;;;10.80;99.90;;;;;;5095272;28;20476;-74
2022/04/05 11:35:45;;;;;;;1.90;1.52;;;11.00;99.90;;;;;;5078700;28;20051;-75
2022/04/05 11:38:17;;;;;;;2.22;1.30;;;11.00;99.90;;;;;;5095297;28;20052;-74
2022/04/05 11:40:50;;;;;;;2.40;1.42;;;11.10;99.90;;;;;;5095067;28;20497;-74
2022/04/05 11:43:28;;;;;;;2.42;1.67;;;11.10;99.90;;;;;;5095313;28;20048;-71
2022/04/05 11:45:58;;;;;;;3.30;1.60;;;11.10;99.90;;;;;;5094943;28;20048;-73
2022/04/05 11:48:28;;;;;;;2.20;1.48;;;11.20;99.90;;;;;;5094776;28;20051;-70
2022/04/05 11:50:58;;;;;;;2.00;1.45;;;11.00;99.90;;;;;;5094240;28;20052;-70
2022/04/05 11:53:25;;;;;;;2.45;1.55;;;10.80;99.90;;;;;;5094498;28;20539;-74
2022/04/05 11:56:16;;;;;;;3.38;1.55;;;10.60;99.90;;;;;;5094580;28;20056;-74
2022/04/05 11:58:50;;;;;;;3.03;1.50;;;10.70;99.90;;;;;;5094855;28;20060;-74
2022/04/05 12:01:31;;;;;;;3.28;1.52;;;11.00;99.90;;;;;;5078241;28;20044;-77
2022/04/05 12:03:59;;;;;;;2.25;1.42;;;10.90;99.90;;;;;;5094753;28;20101;-77
2022/04/05 12:06:32;;;;;;;4.72;2.28;;;10.90;99.90;;;;;;5095271;28;20491;-77
2022/04/05 12:09:05;;;;;;;3.10;1.50;;;11.10;99.90;;;;;;5094319;28;20090;-77
2022/04/05 12:11:32;;;;;;;1.92;1.15;;;11.30;99.90;;;;;;5094583;28;20040;-77
2022/04/05 12:14:09;;;;;;;2.45;1.60;;;11.30;99.90;;;;;;5094459;28;20048;-77
2022/04/05 12:16:54;;;;;;;4.55;2.65;;;11.30;99.90;;;;;;5094489;28;20077;-77
2022/04/05 12:19:34;;;;;;;4.75;3.78;;;11.50;99.90;;;;;;5094422;28;20097;-77
2022/04/05 12:22:10;;;;;;;2.22;1.85;;;11.10;99.90;;;;;;5094014;28;20060;-77
2022/04/05 12:24:42;;;;;;;1.80;1.45;;;11.10;99.90;;;;;;5094329;28;20387;-77
2022/04/05 12:27:08;;;;;;;2.90;1.80;;;11.40;99.90;;;;;;5092833;28;20055;-77
2022/04/05 12:29:39;;;;;;;3.50;2.70;;;11.50;99.90;;;;;;5094060;28;20040;-77
2022/04/05 12:32:07;;;;;;;3.17;2.20;;;11.60;99.90;;;;;;5094116;28;20144;-79
2022/04/05 12:34:33;;;;;;;2.20;1.63;;;11.80;99.90;;;;;;5093933;28;20052;-76
2022/04/05 12:37:12;;;;;;;3.40;2.50;;;11.80;99.90;;;;;;5077290;28;20131;-78
2022/04/05 12:39:50;;;;;;;2.30;1.75;;;11.60;99.90;;;;;;5093971;28;20515;-74
2022/04/05 12:42:16;;;;;;;3.53;2.35;;;11.60;99.90;;;;;;5094122;28;20044;-74
2022/04/05 12:44:48;;;;;;;3.17;2.30;;;11.70;99.90;;;;;;5093879;28;20467;-72
2022/04/05 12:47:22;;;;;;;2.70;2.03;;;11.80;99.90;;;;;;5094078;28;20445;-73
2022/04/05 12:50:07;;;;;;;3.80;2.75;;;11.70;99.90;;;;;;5093741;28;20543;-73
2022/04/05 12:52:33;;;;;;;4.18;2.90;;;11.30;99.90;;;;;;5093248;28;20063;-74
2022/04/05 12:55:12;;;;;;;3.67;2.35;;;11.20;99.90;;;;;;5093826;28;20048;-74